Clinton, OK

9:02 AM CST on January 17, 2017 (GMT -0600)
Clinton Municipal

Weather History for KCLK - October, 2014

Change the Weather History Date:

Saturday, October 11, 2014

  Actual Average (KCSM) Record (KCSM)
Temperature  
Mean Temperature 52 °F -  
Max Temperature 60 °F 72 °F 93 °F (2015)
Min Temperature 44 °F 50 °F 46 °F (2006)
Degree Days  
Heating Degree Days 13    
Growing Degree Days 2 (Base 50)    
Moisture  
Dew Point 39 °F    
Average Humidity 65    
Maximum Humidity 87    
Minimum Humidity 36    
Precipitation  
Precipitation 0.00 in - - ()
Sea Level Pressure  
Sea Level Pressure 30.11 in    
Wind  
Wind Speed 13 mph (NNE)    
Max Wind Speed 20 mph    
Max Gust Speed 25 mph    
Visibility 10 miles    
Events      
Averages and records for this station are not official NWS values.
T = Trace of Precipitation, MM = Missing Value Source: NWS Daily Summary

Daily Weather History Graph

Daily Weather History Graph

Search for Another Location

Airport or City:

Trip Planner

Search our weather history database for the weather conditions in past years. The results will help you decide how hot, cold, wet, or windy it might be!

Date:

Astronomy

Oct. 11, 2014 Rise Set
Actual Time 7:38 AM CDT 7:05 PM CDT
Civil Twilight 7:13 AM CDT 7:31 PM CDT
Nautical Twilight 6:43 AM CDT 8:00 PM CDT
Astronomical Twilight 6:14 AM CDT 8:30 PM CDT
Moon 9:40 PM CDT (10/11) 10:58 AM CDT (10/11)
Length of Visible Light 12h 17m
Length of Day
11h 26m
Waning Gibbous, 87% of the Moon is Illuminated
Oct 11
Waning Gibbous
Oct 15
Last Quarter
Oct 23
New
Oct 30
First Quarter
Nov 6
Full

Hourly Weather History & Observations

Time (CDT) Temp. Windchill Dew Point Humidity Pressure Visibility Wind Dir Wind Speed Gust Speed Precip Events Conditions
12:15 AM 46.4 °F 39.0 °F 42.8 °F 87% 30.11 in 10.0 mi North 19.6 mph - N/A   Overcast
12:35 AM 46.4 °F 39.5 °F 42.8 °F 87% 30.11 in 10.0 mi North 17.3 mph 23.0 mph N/A   Overcast
12:55 AM 46.4 °F 39.2 °F 42.8 °F 87% - 7.0 mi North 18.4 mph 23.0 mph N/A   Overcast
1:15 AM 46.4 °F 39.5 °F 42.8 °F 87% - 7.0 mi North 17.3 mph 24.2 mph N/A   Overcast
1:35 AM 46.4 °F 39.5 °F 42.8 °F 87% 30.09 in 10.0 mi North 17.3 mph - N/A   Overcast
1:55 AM 46.4 °F 39.5 °F 42.8 °F 87% 30.09 in 10.0 mi North 17.3 mph - N/A   Overcast
2:15 AM 46.4 °F 39.2 °F 42.8 °F 87% - 10.0 mi North 18.4 mph 24.2 mph N/A   Overcast
2:35 AM 46.4 °F 39.5 °F 42.8 °F 87% - 10.0 mi North 17.3 mph 21.9 mph N/A   Overcast
2:55 AM 46.4 °F 39.2 °F 42.8 °F 87% - 10.0 mi North 18.4 mph 25.3 mph N/A   Overcast
3:15 AM 46.4 °F 39.0 °F 41.0 °F 81% - 10.0 mi North 19.6 mph 23.0 mph N/A   Overcast
3:35 AM 44.6 °F 37.8 °F 41.0 °F 87% - 10.0 mi North 15.0 mph 21.9 mph N/A   Overcast
3:55 AM 46.4 °F 39.2 °F 41.0 °F 81% - 10.0 mi North 18.4 mph 24.2 mph N/A   Overcast
4:15 AM 44.6 °F 38.4 °F 41.0 °F 87% - 10.0 mi North 12.7 mph 19.6 mph N/A   Overcast
4:35 AM 44.6 °F 38.4 °F 41.0 °F 87% - 10.0 mi North 12.7 mph 23.0 mph N/A   Overcast
4:55 AM 44.6 °F 37.4 °F 41.0 °F 87% - 10.0 mi North 16.1 mph 19.6 mph N/A   Overcast
5:15 AM 44.6 °F 37.8 °F 41.0 °F 87% - 10.0 mi North 15.0 mph 20.7 mph N/A   Overcast
5:35 AM 44.6 °F 38.4 °F 41.0 °F 87% - 10.0 mi North 12.7 mph - N/A   Overcast
5:55 AM 44.6 °F 39.7 °F 39.2 °F 81% - 10.0 mi North 9.2 mph - N/A   Overcast
6:15 AM 46.4 °F 41.1 °F 37.4 °F 71% 30.11 in 10.0 mi North 11.5 mph - N/A   Overcast
6:35 AM 46.4 °F 40.4 °F 37.4 °F 71% - 10.0 mi North 13.8 mph - N/A   Overcast
6:55 AM 46.4 °F 41.1 °F 37.4 °F 71% 30.12 in 10.0 mi North 11.5 mph 18.4 mph N/A   Overcast
7:15 AM 46.4 °F 41.9 °F 37.4 °F 71% 30.13 in 10.0 mi North 9.2 mph - N/A   Overcast
7:35 AM 46.4 °F 41.1 °F 37.4 °F 71% 30.14 in 10.0 mi North 11.5 mph - N/A   Overcast
7:55 AM 46.4 °F 41.1 °F 37.4 °F 71% 30.15 in 10.0 mi North 11.5 mph - N/A   Overcast
8:15 AM 46.4 °F 40.7 °F 37.4 °F 71% 30.16 in 10.0 mi North 12.7 mph - N/A   Overcast
8:35 AM 46.4 °F 40.7 °F 37.4 °F 71% 30.17 in 10.0 mi North 12.7 mph - N/A   Overcast
8:55 AM 46.4 °F 40.7 °F 37.4 °F 71% 30.18 in 10.0 mi North 12.7 mph 16.1 mph N/A   Overcast
9:15 AM 48.2 °F - 37.4 °F 66% 30.20 in 10.0 mi North 12.7 mph 18.4 mph N/A   Overcast
9:35 AM 50.0 °F - 37.4 °F 62% 30.20 in 10.0 mi North 13.8 mph - N/A   Overcast
9:55 AM 50.0 °F - 39.2 °F 66% - 10.0 mi North 12.7 mph - N/A   Overcast
10:15 AM 50.0 °F - 37.4 °F 62% 30.20 in 10.0 mi North 12.7 mph - N/A   Overcast
10:35 AM 51.8 °F - 39.2 °F 62% 30.20 in 10.0 mi North 11.5 mph - N/A   Overcast
10:55 AM 51.8 °F - 39.2 °F 62% 30.20 in 10.0 mi North 13.8 mph 17.3 mph N/A   Overcast
11:15 AM 51.8 °F - 39.2 °F 62% 30.19 in 10.0 mi North 13.8 mph - N/A   Overcast
11:35 AM 53.6 °F - 39.2 °F 58% 30.19 in 10.0 mi North 13.8 mph 20.7 mph N/A   Overcast
11:55 AM 53.6 °F - 39.2 °F 58% 30.18 in 10.0 mi North 12.7 mph - N/A   Overcast
12:15 PM 53.6 °F - 39.2 °F 58% 30.18 in 10.0 mi North 10.4 mph - N/A   Overcast
12:35 PM 55.4 °F - 39.2 °F 54% 30.18 in 10.0 mi North 11.5 mph - N/A   Overcast
12:55 PM 55.4 °F - 37.4 °F 51% 30.17 in 10.0 mi North 12.7 mph 17.3 mph N/A   Overcast
1:15 PM 55.4 °F - 37.4 °F 51% 30.17 in 10.0 mi North 11.5 mph 17.3 mph N/A   Overcast
1:35 PM 55.4 °F - 37.4 °F 51% 30.16 in 10.0 mi North 11.5 mph - N/A   Overcast
1:55 PM 57.2 °F - 37.4 °F 48% 30.15 in 10.0 mi North 11.5 mph 17.3 mph N/A   Overcast
2:15 PM 57.2 °F - 37.4 °F 48% 30.14 in 10.0 mi North 11.5 mph - N/A   Overcast
2:35 PM 59.0 °F - 37.4 °F 45% 30.13 in 10.0 mi North 11.5 mph - N/A   Overcast
2:55 PM 59.0 °F - 37.4 °F 45% 30.12 in 10.0 mi NNE 8.1 mph - N/A   Overcast
3:15 PM 59.0 °F - 35.6 °F 42% 30.12 in 10.0 mi North 6.9 mph - N/A   Overcast
3:35 PM 59.0 °F - 35.6 °F 42% 30.11 in 10.0 mi North 9.2 mph - N/A   Overcast
3:55 PM 59.0 °F - 35.6 °F 42% 30.10 in 10.0 mi NNW 6.9 mph - N/A   Overcast
4:15 PM 60.8 °F - 33.8 °F 36% 30.09 in 10.0 mi NNE 8.1 mph - N/A   Scattered Clouds
4:35 PM 60.8 °F - 33.8 °F 36% 30.08 in 10.0 mi North 8.1 mph - N/A   Scattered Clouds
4:55 PM 60.8 °F - 33.8 °F 36% 30.08 in 10.0 mi NNE 9.2 mph - N/A   Scattered Clouds
5:15 PM 60.8 °F - 33.8 °F 36% 30.07 in 10.0 mi NE 6.9 mph - N/A   Clear
5:35 PM 60.8 °F - 33.8 °F 36% 30.06 in 10.0 mi NE 8.1 mph - N/A   Clear
5:55 PM 60.8 °F - 33.8 °F 36% 30.06 in 10.0 mi NNE 6.9 mph - N/A   Clear
6:15 PM 60.8 °F - 35.6 °F 39% 30.06 in 10.0 mi NNE 6.9 mph - N/A   Clear
6:35 PM 59.0 °F - 37.4 °F 45% 30.06 in 10.0 mi NE 5.8 mph - N/A   Clear
6:55 PM 57.2 °F - 39.2 °F 51% 30.06 in 10.0 mi NE 5.8 mph - N/A   Clear
7:15 PM 55.4 °F - 41.0 °F 58% 30.07 in 10.0 mi ENE 5.8 mph - N/A   Clear
7:35 PM 53.6 °F - 41.0 °F 62% 30.06 in 10.0 mi ENE 5.8 mph - N/A   Clear
7:55 PM 51.8 °F - 41.0 °F 67% 30.06 in 7.0 mi ENE 5.8 mph - N/A   Scattered Clouds
8:15 PM 51.8 °F - 41.0 °F 67% 30.06 in 3.0 mi East 6.9 mph - N/A   Haze
8:35 PM 51.8 °F - 41.0 °F 67% 30.06 in 5.0 mi East 6.9 mph - N/A   Haze
8:55 PM 50.0 °F - 41.0 °F 71% 30.06 in 5.0 mi East 6.9 mph - N/A   Haze
9:15 PM 50.0 °F - 41.0 °F 71% 30.06 in 7.0 mi East 5.8 mph - N/A   Clear
9:35 PM 50.0 °F - 41.0 °F 71% 30.06 in 10.0 mi East 3.5 mph - N/A   Clear
9:55 PM 50.0 °F - 41.0 °F 71% 30.06 in 10.0 mi SE 3.5 mph - N/A   Clear
10:15 PM 51.8 °F - 41.0 °F 67% 30.06 in 10.0 mi SE 4.6 mph - N/A   Clear
10:35 PM 51.8 °F - 41.0 °F 67% 30.06 in 10.0 mi Calm Calm - N/A   Clear
10:55 PM 50.0 °F - 41.0 °F 71% 30.06 in 10.0 mi Calm Calm - N/A   Clear
11:15 PM 48.2 °F - 41.0 °F 76% 30.06 in 10.0 mi South 3.5 mph - N/A   Clear
11:35 PM 50.0 °F - 41.0 °F 71% 30.05 in 10.0 mi SSE 4.6 mph - N/A   Clear
11:55 PM 46.4 °F 44.3 °F 41.0 °F 81% 30.03 in 10.0 mi SSE 4.6 mph - N/A   Clear